sensor_id;sensor_type;location;lat;lon;timestamp;P1;durP1;ratioP1;P2;durP2;ratioP2
8656;SDS011;4366;50.764;7.184;2022-08-19T05:06:35;9.80;;;8.80;;
8656;SDS011;4366;50.764;7.184;2022-08-19T05:11:37;8.00;;;7.20;;
8656;SDS011;4366;50.764;7.184;2022-08-19T05:16:40;7.93;;;7.17;;
8656;SDS011;4366;50.764;7.184;2022-08-19T05:21:42;8.63;;;7.73;;
8656;SDS011;4366;50.764;7.184;2022-08-19T05:27:03;7.73;;;6.97;;
8656;SDS011;4366;50.764;7.184;2022-08-19T05:32:06;7.10;;;6.43;;
8656;SDS011;4366;50.764;7.184;2022-08-19T05:37:11;8.07;;;7.00;;
8656;SDS011;4366;50.764;7.184;2022-08-19T05:42:13;8.33;;;7.53;;
8656;SDS011;4366;50.764;7.184;2022-08-19T05:47:15;8.23;;;7.50;;
8656;SDS011;4366;50.764;7.184;2022-08-19T05:52:18;7.77;;;6.97;;
8656;SDS011;4366;50.764;7.184;2022-08-19T05:57:26;10.37;;;7.97;;
8656;SDS011;4366;50.764;7.184;2022-08-19T06:02:30;11.30;;;9.30;;
8656;SDS011;4366;50.764;7.184;2022-08-19T06:07:32;11.53;;;10.17;;
8656;SDS011;4366;50.764;7.184;2022-08-19T06:12:35;12.95;;;10.85;;
8656;SDS011;4366;50.764;7.184;2022-08-19T06:17:37;13.63;;;11.23;;
8656;SDS011;4366;50.764;7.184;2022-08-19T06:22:40;13.97;;;11.00;;
8656;SDS011;4366;50.764;7.184;2022-08-19T06:27:43;14.47;;;12.00;;
8656;SDS011;4366;50.764;7.184;2022-08-19T06:33:06;17.33;;;13.03;;
8656;SDS011;4366;50.764;7.184;2022-08-19T06:38:07;16.60;;;12.03;;
8656;SDS011;4366;50.764;7.184;2022-08-19T06:43:10;17.10;;;12.47;;
8656;SDS011;4366;50.764;7.184;2022-08-19T06:48:14;16.03;;;12.93;;
8656;SDS011;4366;50.764;7.184;2022-08-19T06:53:18;18.67;;;14.00;;
8656;SDS011;4366;50.764;7.184;2022-08-19T06:58:21;15.70;;;13.57;;
8656;SDS011;4366;50.764;7.184;2022-08-19T07:03:23;18.37;;;14.07;;
8656;SDS011;4366;50.764;7.184;2022-08-19T07:08:25;17.33;;;14.50;;
8656;SDS011;4366;50.764;7.184;2022-08-19T07:13:29;17.00;;;13.15;;
8656;SDS011;4366;50.764;7.184;2022-08-19T07:18:36;22.83;;;15.20;;
8656;SDS011;4366;50.764;7.184;2022-08-19T07:23:44;19.37;;;14.27;;
8656;SDS011;4366;50.764;7.184;2022-08-19T07:28:47;16.13;;;12.93;;
8656;SDS011;4366;50.764;7.184;2022-08-19T07:33:54;17.93;;;13.37;;
8656;SDS011;4366;50.764;7.184;2022-08-19T07:38:57;19.70;;;14.77;;
8656;SDS011;4366;50.764;7.184;2022-08-19T07:43:59;18.15;;;14.65;;
8656;SDS011;4366;50.764;7.184;2022-08-19T07:49:05;17.25;;;12.45;;
8656;SDS011;4366;50.764;7.184;2022-08-19T07:54:08;18.80;;;12.38;;
8656;SDS011;4366;50.764;7.184;2022-08-19T07:59:10;18.73;;;14.18;;
8656;SDS011;4366;50.764;7.184;2022-08-19T08:04:13;15.32;;;12.88;;
8656;SDS011;4366;50.764;7.184;2022-08-19T08:09:36;15.95;;;12.13;;
8656;SDS011;4366;50.764;7.184;2022-08-19T08:14:41;15.82;;;11.93;;
8656;SDS011;4366;50.764;7.184;2022-08-19T08:19:47;16.75;;;12.20;;
8656;SDS011;4366;50.764;7.184;2022-08-19T08:24:52;17.40;;;12.88;;
8656;SDS011;4366;50.764;7.184;2022-08-19T08:29:54;14.82;;;11.88;;
8656;SDS011;4366;50.764;7.184;2022-08-19T08:34:56;13.05;;;10.32;;
8656;SDS011;4366;50.764;7.184;2022-08-19T08:39:58;10.82;;;8.63;;
8656;SDS011;4366;50.764;7.184;2022-08-19T08:45:03;9.07;;;7.30;;
8656;SDS011;4366;50.764;7.184;2022-08-19T08:50:09;9.30;;;7.80;;
8656;SDS011;4366;50.764;7.184;2022-08-19T08:55:17;8.88;;;7.03;;
8656;SDS011;4366;50.764;7.184;2022-08-19T09:00:24;10.13;;;7.07;;
8656;SDS011;4366;50.764;7.184;2022-08-19T09:11:05;8.90;;;6.57;;
8656;SDS011;4366;50.764;7.184;2022-08-19T09:16:16;9.45;;;7.43;;
8656;SDS011;4366;50.764;7.184;2022-08-19T09:21:28;7.55;;;6.65;;
8656;SDS011;4366;50.764;7.184;2022-08-19T09:26:33;10.07;;;6.95;;
8656;SDS011;4366;50.764;7.184;2022-08-19T09:31:53;9.30;;;7.07;;
8656;SDS011;4366;50.764;7.184;2022-08-19T09:36:55;7.35;;;6.50;;
8656;SDS011;4366;50.764;7.184;2022-08-19T09:41:59;7.63;;;6.78;;
8656;SDS011;4366;50.764;7.184;2022-08-19T09:47:01;8.45;;;6.78;;
8656;SDS011;4366;50.764;7.184;2022-08-19T09:52:04;10.77;;;7.57;;
8656;SDS011;4366;50.764;7.184;2022-08-19T09:57:06;10.85;;;8.27;;
8656;SDS011;4366;50.764;7.184;2022-08-19T10:02:09;11.95;;;9.48;;
8656;SDS011;4366;50.764;7.184;2022-08-19T10:07:12;11.45;;;9.55;;
8656;SDS011;4366;50.764;7.184;2022-08-19T10:12:14;11.82;;;8.98;;
8656;SDS011;4366;50.764;7.184;2022-08-19T10:17:20;8.65;;;7.75;;
8656;SDS011;4366;50.764;7.184;2022-08-19T10:22:27;13.57;;;9.55;;
8656;SDS011;4366;50.764;7.184;2022-08-19T10:27:32;13.27;;;9.68;;
8656;SDS011;4366;50.764;7.184;2022-08-19T10:32:35;11.80;;;9.38;;
8656;SDS011;4366;50.764;7.184;2022-08-19T10:37:38;10.20;;;8.55;;
8656;SDS011;4366;50.764;7.184;2022-08-19T10:42:57;13.70;;;10.57;;
8656;SDS011;4366;50.764;7.184;2022-08-19T10:47:59;14.15;;;10.25;;
8656;SDS011;4366;50.764;7.184;2022-08-19T10:53:03;13.63;;;10.43;;
8656;SDS011;4366;50.764;7.184;2022-08-19T10:58:13;12.88;;;10.38;;
8656;SDS011;4366;50.764;7.184;2022-08-19T11:03:16;10.93;;;8.48;;
8656;SDS011;4366;50.764;7.184;2022-08-19T11:08:19;14.50;;;10.02;;
8656;SDS011;4366;50.764;7.184;2022-08-19T11:13:24;11.48;;;8.43;;
8656;SDS011;4366;50.764;7.184;2022-08-19T11:18:26;9.55;;;8.32;;
8656;SDS011;4366;50.764;7.184;2022-08-19T11:23:28;8.63;;;7.75;;
8656;SDS011;4366;50.764;7.184;2022-08-19T11:28:29;10.60;;;7.63;;
8656;SDS011;4366;50.764;7.184;2022-08-19T11:33:31;8.43;;;7.57;;
8656;SDS011;4366;50.764;7.184;2022-08-19T11:38:36;9.13;;;8.23;;
8656;SDS011;4366;50.764;7.184;2022-08-19T11:43:38;7.50;;;6.68;;
8656;SDS011;4366;50.764;7.184;2022-08-19T11:48:43;8.55;;;7.47;;
8656;SDS011;4366;50.764;7.184;2022-08-19T11:53:52;8.73;;;7.85;;
8656;SDS011;4366;50.764;7.184;2022-08-19T11:58:55;7.57;;;5.85;;
8656;SDS011;4366;50.764;7.184;2022-08-19T12:03:58;9.00;;;7.38;;
8656;SDS011;4366;50.764;7.184;2022-08-19T12:09:04;7.20;;;6.40;;
8656;SDS011;4366;50.764;7.184;2022-08-19T12:14:09;7.68;;;6.03;;
8656;SDS011;4366;50.764;7.184;2022-08-19T12:19:15;6.43;;;5.82;;
8656;SDS011;4366;50.764;7.184;2022-08-19T12:24:22;6.03;;;5.43;;
8656;SDS011;4366;50.764;7.184;2022-08-19T12:29:25;6.30;;;5.70;;
8656;SDS011;4366;50.764;7.184;2022-08-19T12:34:31;8.05;;;5.82;;
8656;SDS011;4366;50.764;7.184;2022-08-19T12:39:34;5.25;;;4.80;;
8656;SDS011;4366;50.764;7.184;2022-08-19T12:44:38;5.72;;;5.10;;
8656;SDS011;4366;50.764;7.184;2022-08-19T12:49:42;6.68;;;5.57;;
8656;SDS011;4366;50.764;7.184;2022-08-19T12:54:56;6.95;;;6.25;;
8656;SDS011;4366;50.764;7.184;2022-08-19T13:00:17;5.70;;;5.20;;
8656;SDS011;4366;50.764;7.184;2022-08-19T13:05:26;8.20;;;5.55;;
8656;SDS011;4366;50.764;7.184;2022-08-19T13:10:31;6.35;;;5.75;;
8656;SDS011;4366;50.764;7.184;2022-08-19T13:15:38;6.03;;;5.47;;
8656;SDS011;4366;50.764;7.184;2022-08-19T13:20:41;5.88;;;5.38;;
8656;SDS011;4366;50.764;7.184;2022-08-19T13:25:56;8.43;;;5.97;;
8656;SDS011;4366;50.764;7.184;2022-08-19T13:36:39;7.38;;;5.57;;
8656;SDS011;4366;50.764;7.184;2022-08-19T13:41:43;5.78;;;5.20;;
8656;SDS011;4366;50.764;7.184;2022-08-19T13:46:49;6.53;;;5.22;;
8656;SDS011;4366;50.764;7.184;2022-08-19T13:51:54;5.70;;;5.13;;
8656;SDS011;4366;50.764;7.184;2022-08-19T13:56:56;6.57;;;5.60;;
8656;SDS011;4366;50.764;7.184;2022-08-19T14:01:58;6.18;;;5.57;;
8656;SDS011;4366;50.764;7.184;2022-08-19T14:07:00;5.82;;;4.97;;
8656;SDS011;4366;50.764;7.184;2022-08-19T14:12:04;6.25;;;5.35;;
8656;SDS011;4366;50.764;7.184;2022-08-19T14:17:06;5.25;;;4.75;;
8656;SDS011;4366;50.764;7.184;2022-08-19T14:22:12;7.22;;;4.75;;
8656;SDS011;4366;50.764;7.184;2022-08-19T14:27:14;4.50;;;4.10;;
8656;SDS011;4366;50.764;7.184;2022-08-19T14:32:16;4.32;;;3.90;;
8656;SDS011;4366;50.764;7.184;2022-08-19T14:37:17;4.57;;;4.03;;
8656;SDS011;4366;50.764;7.184;2022-08-19T14:42:19;4.55;;;3.88;;
8656;SDS011;4366;50.764;7.184;2022-08-19T14:47:21;8.10;;;4.72;;
8656;SDS011;4366;50.764;7.184;2022-08-19T14:52:23;5.05;;;4.40;;
8656;SDS011;4366;50.764;7.184;2022-08-19T14:57:25;5.15;;;4.60;;
8656;SDS011;4366;50.764;7.184;2022-08-19T15:02:26;4.85;;;4.35;;
8656;SDS011;4366;50.764;7.184;2022-08-19T15:07:36;7.15;;;4.80;;
8656;SDS011;4366;50.764;7.184;2022-08-19T15:12:38;5.20;;;4.30;;
8656;SDS011;4366;50.764;7.184;2022-08-19T15:17:41;6.25;;;4.95;;
8656;SDS011;4366;50.764;7.184;2022-08-19T15:22:46;6.57;;;4.57;;
8656;SDS011;4366;50.764;7.184;2022-08-19T15:27:48;5.20;;;4.70;;
8656;SDS011;4366;50.764;7.184;2022-08-19T15:32:51;5.15;;;4.57;;
8656;SDS011;4366;50.764;7.184;2022-08-19T15:37:55;4.45;;;4.05;;
8656;SDS011;4366;50.764;7.184;2022-08-19T15:42:57;3.88;;;3.38;;
8656;SDS011;4366;50.764;7.184;2022-08-19T15:47:59;3.83;;;2.97;;
8656;SDS011;4366;50.764;7.184;2022-08-19T15:53:04;4.18;;;3.05;;
8656;SDS011;4366;50.764;7.184;2022-08-19T15:58:09;2.90;;;2.70;;
8656;SDS011;4366;50.764;7.184;2022-08-19T16:03:31;2.70;;;2.45;;
8656;SDS011;4366;50.764;7.184;2022-08-19T16:08:53;4.65;;;2.28;;
8656;SDS011;4366;50.764;7.184;2022-08-19T16:13:56;2.70;;;2.03;;
8656;SDS011;4366;50.764;7.184;2022-08-19T16:19:00;2.67;;;2.33;;
8656;SDS011;4366;50.764;7.184;2022-08-19T16:24:05;4.57;;;2.10;;
8656;SDS011;4366;50.764;7.184;2022-08-19T16:29:07;5.57;;;2.13;;
8656;SDS011;4366;50.764;7.184;2022-08-19T16:34:13;2.58;;;2.38;;
8656;SDS011;4366;50.764;7.184;2022-08-19T16:39:15;3.75;;;2.05;;
8656;SDS011;4366;50.764;7.184;2022-08-19T16:44:18;2.22;;;2.05;;
8656;SDS011;4366;50.764;7.184;2022-08-19T16:49:21;2.35;;;2.00;;
8656;SDS011;4366;50.764;7.184;2022-08-19T16:54:46;3.15;;;1.88;;
8656;SDS011;4366;50.764;7.184;2022-08-19T17:00:21;3.05;;;2.38;;
8656;SDS011;4366;50.764;7.184;2022-08-19T17:05:23;2.00;;;1.90;;
8656;SDS011;4366;50.764;7.184;2022-08-19T17:10:25;3.05;;;2.00;;
8656;SDS011;4366;50.764;7.184;2022-08-19T17:15:27;2.30;;;2.10;;
8656;SDS011;4366;50.764;7.184;2022-08-19T17:20:29;2.15;;;2.05;;
8656;SDS011;4366;50.764;7.184;2022-08-19T17:25:31;1.92;;;1.83;;
8656;SDS011;4366;50.764;7.184;2022-08-19T17:30:32;1.73;;;1.63;;
8656;SDS011;4366;50.764;7.184;2022-08-19T17:35:34;2.22;;;1.50;;
8656;SDS011;4366;50.764;7.184;2022-08-19T17:40:37;1.60;;;1.50;;
8656;SDS011;4366;50.764;7.184;2022-08-19T17:45:41;1.55;;;1.42;;
8656;SDS011;4366;50.764;7.184;2022-08-19T17:50:43;1.48;;;1.38;;
8656;SDS011;4366;50.764;7.184;2022-08-19T17:55:48;2.13;;;1.85;;
8656;SDS011;4366;50.764;7.184;2022-08-19T18:00:49;1.70;;;1.60;;
8656;SDS011;4366;50.764;7.184;2022-08-19T18:05:54;2.42;;;1.70;;
8656;SDS011;4366;50.764;7.184;2022-08-19T18:10:57;1.50;;;1.40;;
8656;SDS011;4366;50.764;7.184;2022-08-19T18:16:00;1.70;;;1.60;;
8656;SDS011;4366;50.764;7.184;2022-08-19T18:21:02;1.90;;;1.75;;
8656;SDS011;4366;50.764;7.184;2022-08-19T18:26:03;1.58;;;1.48;;
8656;SDS011;4366;50.764;7.184;2022-08-19T18:31:06;2.10;;;1.90;;
8656;SDS011;4366;50.764;7.184;2022-08-19T18:36:08;2.25;;;1.63;;
8656;SDS011;4366;50.764;7.184;2022-08-19T18:41:09;2.50;;;1.48;;
8656;SDS011;4366;50.764;7.184;2022-08-19T18:46:30;1.55;;;1.45;;
8656;SDS011;4366;50.764;7.184;2022-08-19T18:51:50;1.67;;;1.58;;
8656;SDS011;4366;50.764;7.184;2022-08-19T18:56:52;2.63;;;1.70;;
8656;SDS011;4366;50.764;7.184;2022-08-19T19:01:56;1.73;;;1.60;;
8656;SDS011;4366;50.764;7.184;2022-08-19T19:06:59;2.97;;;2.00;;
8656;SDS011;4366;50.764;7.184;2022-08-19T19:12:02;2.17;;;1.83;;
8656;SDS011;4366;50.764;7.184;2022-08-19T19:17:09;1.90;;;1.80;;
8656;SDS011;4366;50.764;7.184;2022-08-19T19:22:13;1.60;;;1.50;;
8656;SDS011;4366;50.764;7.184;2022-08-19T19:27:17;2.65;;;1.92;;
8656;SDS011;4366;50.764;7.184;2022-08-19T19:32:25;2.20;;;1.90;;
8656;SDS011;4366;50.764;7.184;2022-08-19T19:37:29;1.85;;;1.75;;
8656;SDS011;4366;50.764;7.184;2022-08-19T19:42:31;1.58;;;1.48;;
8656;SDS011;4366;50.764;7.184;2022-08-19T19:47:33;2.33;;;1.92;;
8656;SDS011;4366;50.764;7.184;2022-08-19T19:52:34;2.78;;;1.83;;
8656;SDS011;4366;50.764;7.184;2022-08-19T19:57:36;1.70;;;1.60;;
8656;SDS011;4366;50.764;7.184;2022-08-19T20:02:39;2.20;;;2.00;;
8656;SDS011;4366;50.764;7.184;2022-08-19T20:07:41;2.00;;;1.90;;
8656;SDS011;4366;50.764;7.184;2022-08-19T20:13:02;3.08;;;2.08;;
8656;SDS011;4366;50.764;7.184;2022-08-19T20:18:05;2.42;;;2.22;;
8656;SDS011;4366;50.764;7.184;2022-08-19T20:23:06;2.25;;;1.95;;
8656;SDS011;4366;50.764;7.184;2022-08-19T20:28:08;1.95;;;1.85;;
8656;SDS011;4366;50.764;7.184;2022-08-19T20:33:12;1.70;;;1.60;;
8656;SDS011;4366;50.764;7.184;2022-08-19T20:38:14;1.83;;;1.73;;
8656;SDS011;4366;50.764;7.184;2022-08-19T20:43:16;1.55;;;1.45;;
8656;SDS011;4366;50.764;7.184;2022-08-19T20:48:19;1.48;;;1.38;;
8656;SDS011;4366;50.764;7.184;2022-08-19T20:53:21;1.55;;;1.45;;
8656;SDS011;4366;50.764;7.184;2022-08-19T20:58:24;1.58;;;1.48;;
8656;SDS011;4366;50.764;7.184;2022-08-19T21:03:27;2.00;;;1.63;;
8656;SDS011;4366;50.764;7.184;2022-08-19T21:08:30;2.00;;;1.30;;
8656;SDS011;4366;50.764;7.184;2022-08-19T21:13:32;0.90;;;0.90;;
8656;SDS011;4366;50.764;7.184;2022-08-19T21:18:34;1.40;;;1.40;;
8656;SDS011;4366;50.764;7.184;2022-08-19T21:23:36;1.40;;;1.38;;
8656;SDS011;4366;50.764;7.184;2022-08-19T21:28:38;1.00;;;1.00;;
8656;SDS011;4366;50.764;7.184;2022-08-19T21:33:39;1.00;;;1.00;;
8656;SDS011;4366;50.764;7.184;2022-08-19T21:38:41;1.20;;;1.15;;
8656;SDS011;4366;50.764;7.184;2022-08-19T21:43:42;1.20;;;1.20;;
8656;SDS011;4366;50.764;7.184;2022-08-19T21:48:44;1.85;;;1.52;;
8656;SDS011;4366;50.764;7.184;2022-08-19T21:53:46;1.83;;;1.40;;
8656;SDS011;4366;50.764;7.184;2022-08-19T21:58:49;1.35;;;1.25;;
8656;SDS011;4366;50.764;7.184;2022-08-19T22:03:50;1.30;;;1.20;;
8656;SDS011;4366;50.764;7.184;2022-08-19T22:08:52;1.30;;;1.27;;
8656;SDS011;4366;50.764;7.184;2022-08-19T22:13:55;1.23;;;1.13;;
8656;SDS011;4366;50.764;7.184;2022-08-19T22:18:57;1.00;;;1.00;;
8656;SDS011;4366;50.764;7.184;2022-08-19T22:23:59;1.00;;;1.00;;
8656;SDS011;4366;50.764;7.184;2022-08-19T22:29:04;1.23;;;1.20;;
8656;SDS011;4366;50.764;7.184;2022-08-19T22:34:06;1.00;;;1.00;;
8656;SDS011;4366;50.764;7.184;2022-08-19T22:39:08;1.20;;;1.20;;
8656;SDS011;4366;50.764;7.184;2022-08-19T22:44:10;3.00;;;1.00;;
8656;SDS011;4366;50.764;7.184;2022-08-19T22:49:12;1.07;;;1.07;;
8656;SDS011;4366;50.764;7.184;2022-08-19T22:54:13;0.87;;;0.87;;
8656;SDS011;4366;50.764;7.184;2022-08-19T22:59:15;0.80;;;0.80;;
8656;SDS011;4366;50.764;7.184;2022-08-19T23:04:17;1.00;;;1.00;;
8656;SDS011;4366;50.764;7.184;2022-08-19T23:09:18;1.20;;;0.90;;
8656;SDS011;4366;50.764;7.184;2022-08-19T23:14:23;0.90;;;0.90;;
8656;SDS011;4366;50.764;7.184;2022-08-19T23:19:25;0.85;;;0.85;;
8656;SDS011;4366;50.764;7.184;2022-08-19T23:24:27;0.88;;;0.88;;
8656;SDS011;4366;50.764;7.184;2022-08-19T23:29:29;1.52;;;1.05;;
8656;SDS011;4366;50.764;7.184;2022-08-19T23:34:50;1.13;;;1.03;;
8656;SDS011;4366;50.764;7.184;2022-08-19T23:39:52;1.17;;;1.07;;
8656;SDS011;4366;50.764;7.184;2022-08-19T23:44:58;1.27;;;1.17;;
8656;SDS011;4366;50.764;7.184;2022-08-19T23:50:01;1.03;;;1.03;;
8656;SDS011;4366;50.764;7.184;2022-08-19T23:55:06;1.07;;;1.00;;
